createdAt,value
2018-03-19T00:01:33.734Z,101959.58
2018-03-19T00:04:01.479Z,101957.56
2018-03-19T00:06:29.169Z,101958.54
2018-03-19T00:08:56.904Z,101958.77
2018-03-19T00:11:24.592Z,101954.08
2018-03-19T00:13:52.296Z,101958.27
2018-03-19T00:16:19.977Z,101955.22
2018-03-19T00:18:47.680Z,101951.42
2018-03-19T00:21:15.356Z,101948.89
2018-03-19T00:23:43.099Z,101951.48
2018-03-19T00:26:10.784Z,101949.40
2018-03-19T00:28:38.496Z,101951.11
2018-03-19T00:31:06.184Z,101950.06
2018-03-19T00:33:33.908Z,101941.86
2018-03-19T00:36:01.607Z,101942.58
2018-03-19T00:38:29.308Z,101940.87
2018-03-19T00:40:57.021Z,101939.15
2018-03-19T00:43:24.800Z,101939.05
2018-03-19T00:45:52.510Z,101934.86
2018-03-19T00:48:20.228Z,101930.45
2018-03-19T00:50:51.852Z,101932.31
2018-03-19T00:53:19.544Z,101928.58
2018-03-19T00:55:47.246Z,101929.40
2018-03-19T00:58:14.934Z,101925.22
2018-03-19T01:00:42.744Z,101925.59
2018-03-19T01:03:10.439Z,101920.15
2018-03-19T01:05:38.172Z,101918.06
2018-03-19T01:08:05.864Z,101919.33
2018-03-19T01:10:33.597Z,101918.88
2018-03-19T01:13:01.280Z,101920.59
2018-03-19T01:15:29.028Z,101922.18
2018-03-19T01:17:56.712Z,101915.75
2018-03-19T01:20:24.457Z,101914.30
2018-03-19T01:22:52.153Z,101911.30
2018-03-19T01:25:19.884Z,101912.06
2018-03-19T01:27:47.572Z,101908.92
2018-03-19T01:30:15.312Z,101909.16
2018-03-19T01:32:43.077Z,101901.88
2018-03-19T01:35:10.776Z,101898.36
2018-03-19T01:37:38.521Z,101899.95
2018-03-19T01:40:06.236Z,101899.95
2018-03-19T01:42:33.917Z,101901.98
2018-03-19T01:45:01.629Z,101897.70
2018-03-19T01:47:29.317Z,101896.98
2018-03-19T01:49:57.128Z,101893.56
2018-03-19T01:52:36.444Z,101891.37
2018-03-19T01:55:04.164Z,101895.11
2018-03-19T01:57:31.844Z,101893.84
2018-03-19T01:59:59.529Z,101895.94
2018-03-19T02:02:27.237Z,101895.17
2018-03-19T02:04:54.924Z,101883.21
2018-03-19T02:07:22.644Z,101886.12
2018-03-19T02:09:50.333Z,101886.80
2018-03-19T02:12:18.079Z,101883.73
2018-03-19T02:14:45.858Z,101884.11
2018-03-19T02:17:13.564Z,101884.43
2018-03-19T02:19:41.248Z,101883.98
2018-03-19T02:22:08.951Z,101883.83
2018-03-19T02:24:36.702Z,101881.59
2018-03-19T02:27:04.469Z,101882.34
2018-03-19T02:29:32.231Z,101882.58
2018-03-19T02:31:59.939Z,101882.45
2018-03-19T02:34:27.636Z,101881.86
2018-03-19T02:36:55.336Z,101880.81
2018-03-19T02:39:23.033Z,101872.94
2018-03-19T02:41:50.857Z,101876.08
2018-03-19T02:44:18.617Z,101878.90
2018-03-19T02:46:46.320Z,101880.10
2018-03-19T02:49:14.009Z,101875.70
2018-03-19T02:51:41.813Z,101869.70
2018-03-19T02:54:09.492Z,101871.13
2018-03-19T02:56:37.237Z,101871.79
2018-03-19T02:59:05.010Z,101870.31
2018-03-19T03:01:32.716Z,101871.30
2018-03-19T03:04:00.396Z,101869.75
2018-03-19T03:06:28.117Z,101875.32
2018-03-19T03:08:55.799Z,101864.85
2018-03-19T03:11:23.491Z,101867.55
2018-03-19T03:13:51.190Z,101868.15
2018-03-19T03:16:18.948Z,101866.95
2018-03-19T03:18:46.665Z,101866.67
2018-03-19T03:21:14.353Z,101865.18
2018-03-19T03:23:42.062Z,101864.45
2018-03-19T03:26:09.804Z,101862.15
2018-03-19T03:28:37.577Z,101863.86
2018-03-19T03:31:05.335Z,101864.08
2018-03-19T03:33:33.041Z,101861.70
2018-03-19T03:36:00.742Z,101860.31
2018-03-19T03:38:28.443Z,101854.88
2018-03-19T03:40:56.134Z,101858.01
2018-03-19T03:43:23.856Z,101856.52
2018-03-19T03:45:51.616Z,101853.70
2018-03-19T03:48:19.383Z,101847.60
2018-03-19T03:50:47.161Z,101849.53
2018-03-19T03:53:14.869Z,101852.31
2018-03-19T03:55:42.547Z,101842.04
2018-03-19T03:58:10.340Z,101845.23
2018-03-19T04:00:38.116Z,101841.75
2018-03-19T04:03:05.875Z,101841.81
2018-03-19T04:05:33.565Z,101837.45
2018-03-19T04:08:01.312Z,101840.13
2018-03-19T04:10:29.475Z,101833.15
2018-03-19T04:12:57.183Z,101839.59
2018-03-19T04:15:24.873Z,101836.33
2018-03-19T04:17:52.571Z,101839.83
2018-03-19T04:20:20.356Z,101838.56
2018-03-19T04:22:48.031Z,101836.63
2018-03-19T04:25:15.773Z,101835.36
2018-03-19T04:27:43.474Z,101838.80
2018-03-19T04:30:11.187Z,101839.67
2018-03-19T04:32:38.955Z,101833.37
2018-03-19T04:35:06.729Z,101835.36
2018-03-19T04:37:34.404Z,101836.92
2018-03-19T04:40:02.113Z,101830.97
2018-03-19T04:42:29.825Z,101833.01
2018-03-19T04:44:57.536Z,101829.14
2018-03-19T04:47:25.241Z,101829.44
2018-03-19T04:49:53.014Z,101825.95
2018-03-19T04:52:20.696Z,101825.86
2018-03-19T04:54:48.450Z,101826.80
2018-03-19T04:57:16.137Z,101817.98
2018-03-19T04:59:43.858Z,101824.41
2018-03-19T05:02:11.545Z,101825.91
2018-03-19T05:04:39.253Z,101821.52
2018-03-19T05:07:06.961Z,101830.19
2018-03-19T05:09:34.673Z,101822.55
2018-03-19T05:12:02.384Z,101825.28
2018-03-19T05:14:30.109Z,101821.49
2018-03-19T05:16:57.817Z,101827.53
2018-03-19T05:19:25.572Z,101825.13
2018-03-19T05:21:53.241Z,101831.23
2018-03-19T05:24:21.003Z,101829.25
2018-03-19T05:26:48.777Z,101826.86
2018-03-19T05:29:16.476Z,101829.99
2018-03-19T05:31:44.164Z,101825.99
2018-03-19T05:34:11.876Z,101831.11
2018-03-19T05:36:39.588Z,101827.55
2018-03-19T05:39:07.302Z,101839.52
2018-03-19T05:41:35.061Z,101833.78
2018-03-19T05:44:02.757Z,101838.25
2018-03-19T05:46:30.494Z,101839.59
2018-03-19T05:48:58.188Z,101841.41
2018-03-19T05:51:25.905Z,101846.16
2018-03-19T05:53:53.584Z,101845.05
2018-03-19T05:56:21.339Z,101847.23
2018-03-19T05:58:49.042Z,101855.80
2018-03-19T06:01:16.767Z,101847.86
2018-03-19T06:03:44.538Z,101853.50
2018-03-19T06:06:12.304Z,101848.53
2018-03-19T06:08:39.988Z,101850.25
2018-03-19T06:11:07.696Z,101851.80
2018-03-19T06:13:35.395Z,101853.80
2018-03-19T06:16:03.099Z,101860.91
2018-03-19T06:18:30.815Z,101856.97
2018-03-19T06:20:58.552Z,101859.55
2018-03-19T06:23:26.243Z,101860.00
2018-03-19T06:25:54.021Z,101855.73
2018-03-19T06:28:21.747Z,101856.16
2018-03-19T06:30:49.541Z,101862.77
2018-03-19T06:33:17.263Z,101859.47
2018-03-19T06:35:44.977Z,101867.11
2018-03-19T06:38:12.666Z,101859.63
2018-03-19T06:40:40.377Z,101861.44
2018-03-19T06:43:08.168Z,101868.69
2018-03-19T06:45:35.937Z,101872.20
2018-03-19T06:48:03.695Z,101860.39
2018-03-19T06:50:31.404Z,101865.09
2018-03-19T06:52:59.128Z,101859.08
2018-03-19T06:55:26.865Z,101864.45
2018-03-19T06:57:54.565Z,101865.23
2018-03-19T07:00:22.257Z,101864.27
2018-03-19T07:02:49.980Z,101863.40
2018-03-19T07:05:17.845Z,101864.14
2018-03-19T07:07:45.611Z,101866.30
2018-03-19T07:10:13.379Z,101859.89
2018-03-19T07:12:41.157Z,101855.41
2018-03-19T07:15:08.911Z,101860.03
2018-03-19T07:17:36.681Z,101853.91
2018-03-19T07:20:04.449Z,101853.75
2018-03-19T07:22:32.240Z,101850.75
2018-03-19T07:24:59.918Z,101852.00
2018-03-19T07:27:27.749Z,101843.83
2018-03-19T07:29:55.500Z,101847.52
2018-03-19T07:32:23.267Z,101844.50
2018-03-19T07:34:50.944Z,101845.49
2018-03-19T07:37:18.645Z,101847.28
2018-03-19T07:39:46.328Z,101838.92
2018-03-19T07:42:14.030Z,101840.00
2018-03-19T07:44:41.886Z,101840.49
2018-03-19T07:47:09.587Z,101841.45
2018-03-19T07:49:37.279Z,101843.66
2018-03-19T07:52:04.984Z,101840.73
2018-03-19T07:54:32.688Z,101838.66
2018-03-19T07:57:00.408Z,101841.27
2018-03-19T07:59:28.097Z,101837.81
2018-03-19T08:01:55.803Z,101839.41
2018-03-19T08:04:23.495Z,101841.81
2018-03-19T08:06:51.199Z,101831.53
2018-03-19T08:09:18.925Z,101830.97
2018-03-19T08:11:46.632Z,101831.20
2018-03-19T08:14:14.352Z,101826.31
2018-03-19T08:16:42.133Z,101826.57
2018-03-19T08:19:09.835Z,101831.89
2018-03-19T08:21:37.525Z,101826.61
2018-03-19T08:24:05.241Z,101831.02
2018-03-19T08:26:32.919Z,101824.69
2018-03-19T08:29:00.634Z,101819.20
2018-03-19T08:31:28.319Z,101815.73
2018-03-19T08:33:56.066Z,101817.91
2018-03-19T08:36:23.762Z,101815.27
2018-03-19T08:38:51.511Z,101819.22
2018-03-19T08:41:19.316Z,101811.22
2018-03-19T08:43:47.012Z,101812.62
2018-03-19T08:46:14.702Z,101810.20
2018-03-19T08:48:42.461Z,101809.53
2018-03-19T08:51:10.219Z,101813.08
2018-03-19T08:53:37.940Z,101807.70
2018-03-19T08:56:05.635Z,101805.17
2018-03-19T08:58:33.336Z,101806.44
2018-03-19T09:01:01.086Z,101807.34
2018-03-19T09:03:28.798Z,101803.06
2018-03-19T09:05:56.513Z,101797.06
2018-03-19T09:08:24.277Z,101799.23
2018-03-19T09:10:51.954Z,101798.42
2018-03-19T09:13:19.696Z,101800.55
2018-03-19T09:15:47.442Z,101795.47
2018-03-19T09:18:15.144Z,101798.91
2018-03-19T09:20:42.892Z,101795.06
2018-03-19T09:23:10.657Z,101790.00
2018-03-19T09:25:38.268Z,101787.86
2018-03-19T09:28:05.872Z,101790.86
2018-03-19T09:30:33.584Z,101789.50
2018-03-19T09:33:01.270Z,101783.52
2018-03-19T09:35:28.895Z,101780.33
2018-03-19T09:37:56.487Z,101783.48
2018-03-19T09:40:24.108Z,101787.20
2018-03-19T09:42:51.753Z,101777.41
2018-03-19T09:45:19.434Z,101775.50
2018-03-19T09:47:47.032Z,101776.66
2018-03-19T09:50:14.861Z,101777.34
2018-03-19T09:52:42.521Z,101774.81
2018-03-19T09:55:10.149Z,101771.33
2018-03-19T09:57:37.948Z,101770.77
2018-03-19T10:00:05.568Z,101766.41
2018-03-19T10:02:33.174Z,101760.89
2018-03-19T10:05:00.799Z,101758.89
2018-03-19T10:07:28.405Z,101747.61
2018-03-19T10:09:56.103Z,101748.76
2018-03-19T10:12:23.714Z,101745.63
2018-03-19T10:14:51.385Z,101738.22
2018-03-19T10:17:19.038Z,101740.69
2018-03-19T10:19:46.667Z,101732.11
2018-03-19T10:22:14.382Z,101726.64
2018-03-19T10:24:42.027Z,101732.55
2018-03-19T10:27:09.668Z,101726.45
2018-03-19T10:29:37.456Z,101724.63
2018-03-19T10:32:05.095Z,101718.05
2018-03-19T10:34:32.793Z,101720.47
2018-03-19T10:37:00.452Z,101723.28
2018-03-19T10:39:28.108Z,101717.51
2018-03-19T10:41:55.741Z,101710.92
2018-03-19T10:44:23.349Z,101710.70
2018-03-19T10:46:50.994Z,101710.49
2018-03-19T10:49:18.672Z,101705.22
2018-03-19T10:51:46.301Z,101708.18
2018-03-19T10:54:13.904Z,101705.44
2018-03-19T10:56:41.544Z,101699.43
2018-03-19T10:59:09.138Z,101696.79
2018-03-19T11:01:42.417Z,101697.52
2018-03-19T11:04:14.394Z,101693.84
2018-03-19T11:06:47.669Z,101696.48
2018-03-19T11:09:21.017Z,101681.72
2018-03-19T11:11:48.733Z,101689.30
2018-03-19T11:14:16.393Z,101677.06
2018-03-19T11:16:44.011Z,101672.03
2018-03-19T11:19:11.607Z,101679.97
2018-03-19T11:21:39.235Z,101669.97
2018-03-19T11:24:06.829Z,101672.84
2018-03-19T11:26:34.464Z,101670.89
2018-03-19T11:29:02.073Z,101665.13
2018-03-19T11:31:29.672Z,101659.70
2018-03-19T11:33:57.381Z,101649.04
2018-03-19T11:36:24.975Z,101648.23
2018-03-19T11:38:52.717Z,101648.06
2018-03-19T11:41:20.315Z,101645.81
2018-03-19T11:43:48.032Z,101642.20
2018-03-19T11:46:15.798Z,101640.28
2018-03-19T11:48:43.481Z,101629.38
2018-03-19T11:51:11.133Z,101632.11
2018-03-19T11:53:38.793Z,101625.97
2018-03-19T11:56:06.461Z,101622.69
2018-03-19T11:58:34.116Z,101630.19
2018-03-19T12:01:01.727Z,101617.05
2018-03-19T12:03:29.358Z,101618.88
2018-03-19T12:05:56.972Z,101618.47
2018-03-19T12:08:24.605Z,101610.91
2018-03-19T12:10:52.327Z,101606.78
2018-03-19T12:13:19.960Z,101598.74
2018-03-19T12:15:47.661Z,101598.40
2018-03-19T12:18:15.293Z,101600.76
2018-03-19T12:20:42.911Z,101597.38
2018-03-19T12:23:10.538Z,101581.67
2018-03-19T12:25:38.154Z,101581.70
2018-03-19T12:28:05.874Z,101584.91
2018-03-19T12:30:33.531Z,101584.97
2018-03-19T12:33:01.161Z,101587.73
2018-03-19T12:35:28.772Z,101583.20
2018-03-19T12:37:56.416Z,101573.81
2018-03-19T12:40:24.022Z,101573.97
2018-03-19T12:42:51.623Z,101570.55
2018-03-19T12:45:19.252Z,101565.17
2018-03-19T12:47:46.861Z,101564.95
2018-03-19T12:50:14.527Z,101560.92
2018-03-19T12:52:42.124Z,101561.52
2018-03-19T12:55:09.852Z,101556.95
2018-03-19T12:57:37.515Z,101555.45
2018-03-19T13:00:05.279Z,101546.58
2018-03-19T13:02:32.883Z,101547.99
2018-03-19T13:05:00.591Z,101535.72
2018-03-19T13:07:28.268Z,101541.34
2018-03-19T13:09:55.895Z,101532.86
2018-03-19T13:12:23.493Z,101525.59
2018-03-19T13:14:51.129Z,101521.80
2018-03-19T13:17:18.820Z,101519.48
2018-03-19T13:19:46.483Z,101515.81
2018-03-19T13:22:14.097Z,101514.56
2018-03-19T13:24:41.724Z,101513.74
2018-03-19T13:27:09.367Z,101509.48
2018-03-19T13:29:37.035Z,101506.56
2018-03-19T13:32:04.695Z,101509.25
2018-03-19T13:34:32.320Z,101497.81
2018-03-19T13:36:59.920Z,101498.28
2018-03-19T13:39:27.583Z,101498.34
2018-03-19T13:41:55.188Z,101497.53
2018-03-19T13:44:22.915Z,101495.08
2018-03-19T13:46:50.520Z,101488.69
2018-03-19T13:49:18.149Z,101493.48
2018-03-19T13:51:45.795Z,101483.58
2018-03-19T13:54:13.415Z,101481.83
2018-03-19T13:56:41.032Z,101488.09
2018-03-19T13:59:08.644Z,101492.27
2018-03-19T14:01:36.271Z,101489.27
2018-03-19T14:04:03.874Z,101479.42
2018-03-19T14:06:31.495Z,101476.86
2018-03-19T14:08:59.137Z,101472.06
2018-03-19T14:11:26.821Z,101468.27
2018-03-19T14:13:54.884Z,101464.89
2018-03-19T14:16:22.505Z,101458.91
2018-03-19T14:18:50.197Z,101455.98
2018-03-19T14:21:17.955Z,101456.02
2018-03-19T14:23:45.556Z,101456.33
2018-03-19T14:26:13.180Z,101443.92
2018-03-19T14:28:40.784Z,101445.21
2018-03-19T14:31:08.479Z,101444.42
2018-03-19T14:33:36.167Z,101436.69
2018-03-19T14:36:03.789Z,101443.14
2018-03-19T14:38:31.487Z,101434.15
2018-03-19T14:40:59.183Z,101428.07
2018-03-19T14:43:26.779Z,101419.48
2018-03-19T14:45:54.436Z,101419.02
2018-03-19T14:48:22.153Z,101418.52
2018-03-19T14:50:49.899Z,101418.11
2018-03-19T14:53:17.475Z,101407.75
2018-03-19T14:55:45.136Z,101412.39
2018-03-19T14:58:12.745Z,101411.84
2018-03-19T15:00:40.372Z,101401.88
2018-03-19T15:03:07.967Z,101404.83
2018-03-19T15:05:35.587Z,101404.86
2018-03-19T15:08:03.244Z,101402.23
2018-03-19T15:10:30.910Z,101393.19
2018-03-19T15:12:58.545Z,101388.80
2018-03-19T15:15:26.248Z,101386.64
2018-03-19T15:17:53.896Z,101384.92
2018-03-19T15:20:21.505Z,101378.47
2018-03-19T15:22:49.138Z,101379.26
2018-03-19T15:25:16.747Z,101377.51
2018-03-19T15:27:44.372Z,101373.19
2018-03-19T15:30:11.983Z,101374.83
2018-03-19T15:32:39.669Z,101368.72
2018-03-19T15:35:07.332Z,101367.79
2018-03-19T15:37:35.009Z,101366.03
2018-03-19T15:40:02.761Z,101360.34
2018-03-19T15:42:30.392Z,101353.45
2018-03-19T15:44:57.987Z,101351.71
2018-03-19T15:47:25.609Z,101352.49
2018-03-19T15:49:53.212Z,101348.09
2018-03-19T15:52:20.850Z,101353.10
2018-03-19T15:54:48.462Z,101349.63
2018-03-19T15:57:16.106Z,101345.66
2018-03-19T15:59:43.699Z,101339.68
2018-03-19T16:02:11.324Z,101340.03
2018-03-19T16:04:38.934Z,101330.98
2018-03-19T16:07:06.561Z,101326.98
2018-03-19T16:09:34.172Z,101325.09
2018-03-19T16:12:01.796Z,101322.41
2018-03-19T16:14:29.427Z,101322.28
2018-03-19T16:16:57.101Z,101322.55
2018-03-19T16:19:24.703Z,101320.27
2018-03-19T16:21:52.419Z,101320.05
2018-03-19T16:24:20.182Z,101317.02
2018-03-19T16:26:47.780Z,101312.77
2018-03-19T16:29:15.409Z,101316.05
2018-03-19T16:31:43.072Z,101318.91
2018-03-19T16:34:10.737Z,101318.33
2018-03-19T16:36:38.335Z,101320.27
2018-03-19T16:39:05.958Z,101313.61
2018-03-19T16:41:33.560Z,101319.94
2018-03-19T16:44:01.189Z,101317.16
2018-03-19T16:46:28.802Z,101314.76
2018-03-19T16:48:56.461Z,101324.02
2018-03-19T16:51:24.069Z,101323.37
2018-03-19T16:53:51.729Z,101323.53
2018-03-19T16:56:19.341Z,101323.28
2018-03-19T16:58:47.054Z,101323.88
2018-03-19T17:01:14.718Z,101323.59
2018-03-19T17:03:42.368Z,101324.19
2018-03-19T17:06:09.980Z,101326.97
2018-03-19T17:08:37.608Z,101331.84
2018-03-19T17:11:05.208Z,101333.72
2018-03-19T17:13:32.828Z,101333.49
2018-03-19T17:16:00.501Z,101328.92
2018-03-19T17:18:28.133Z,101331.67
2018-03-19T17:20:55.740Z,101330.97
2018-03-19T17:23:23.380Z,101329.84
2018-03-19T17:25:51.045Z,101332.20
2018-03-19T17:28:18.710Z,101333.57
2018-03-19T17:30:46.395Z,101336.95
2018-03-19T17:33:14.043Z,101327.36
2018-03-19T17:35:41.644Z,101325.63
2018-03-19T17:38:09.356Z,101323.84
2018-03-19T17:40:37.019Z,101326.11
2018-03-19T17:43:04.616Z,101327.38
2018-03-19T17:45:32.344Z,101329.31
2018-03-19T17:47:59.984Z,101335.16
2018-03-19T17:50:27.597Z,101330.84
2018-03-19T17:52:56.771Z,101331.26
2018-03-19T17:55:24.396Z,101331.42
2018-03-19T17:57:52.088Z,101333.71
2018-03-19T18:00:19.797Z,101337.34
2018-03-19T18:02:47.480Z,101334.53
2018-03-19T18:05:15.296Z,101336.90
2018-03-19T18:07:42.980Z,101336.74
2018-03-19T18:10:10.693Z,101334.50
2018-03-19T18:12:38.373Z,101335.75
2018-03-19T18:15:06.096Z,101336.09
2018-03-19T18:17:33.808Z,101333.62
2018-03-19T18:20:01.516Z,101335.31
2018-03-19T18:22:29.203Z,101337.91
2018-03-19T18:24:57.203Z,101347.33
2018-03-19T18:27:24.977Z,101342.58
2018-03-19T18:29:52.690Z,101339.37
2018-03-19T18:32:20.373Z,101339.47
2018-03-19T18:34:48.173Z,101345.63
2018-03-19T18:37:15.931Z,101346.27
2018-03-19T18:39:43.644Z,101347.34
2018-03-19T18:42:11.356Z,101353.62
2018-03-19T18:44:39.049Z,101353.89
2018-03-19T18:47:06.760Z,101351.24
2018-03-19T18:49:34.446Z,101345.31
2018-03-19T18:52:02.189Z,101351.83
2018-03-19T18:54:29.870Z,101342.19
2018-03-19T18:56:57.589Z,101336.85
2018-03-19T18:59:25.274Z,101346.91
2018-03-19T19:01:53.067Z,101343.64
2018-03-19T19:04:20.752Z,101337.39
2018-03-19T19:06:48.504Z,101331.26
2018-03-19T19:09:16.273Z,101332.37
2018-03-19T19:11:44.037Z,101324.53
2018-03-19T19:14:11.791Z,101327.20
2018-03-19T19:16:39.563Z,101326.97
2018-03-19T19:19:07.366Z,101333.08
2018-03-19T19:21:35.192Z,101335.83
2018-03-19T19:24:02.883Z,101332.56
2018-03-19T19:26:30.630Z,101329.77
2018-03-19T19:28:58.292Z,101328.42
2018-03-19T19:31:26.058Z,101324.55
2018-03-19T19:33:53.752Z,101323.95
2018-03-19T19:36:21.477Z,101326.79
2018-03-19T19:38:49.343Z,101321.01
2018-03-19T19:41:17.056Z,101326.70
2018-03-19T19:43:44.743Z,101326.95
2018-03-19T19:46:12.447Z,101322.80
2018-03-19T19:48:40.463Z,101315.91
2018-03-19T19:51:08.176Z,101316.59
2018-03-19T19:53:35.860Z,101320.25
2018-03-19T19:56:03.613Z,101321.32
2018-03-19T19:58:31.367Z,101331.67
2018-03-19T20:00:59.087Z,101325.33
2018-03-19T20:03:26.791Z,101325.02
2018-03-19T20:05:54.471Z,101324.73
2018-03-19T20:08:22.229Z,101324.44
2018-03-19T20:10:49.917Z,101318.74
2018-03-19T20:13:17.624Z,101316.47
2018-03-19T20:15:45.379Z,101314.91
2018-03-19T20:18:13.084Z,101310.02
2018-03-19T20:20:40.842Z,101315.22
2018-03-19T20:23:08.617Z,101308.60
2018-03-19T20:25:36.381Z,101307.65
2018-03-19T20:28:04.139Z,101305.38
2018-03-19T20:30:31.950Z,101301.91
2018-03-19T20:32:59.676Z,101300.03
2018-03-19T20:35:27.421Z,101301.86
2018-03-19T20:37:55.108Z,101302.09
2018-03-19T20:40:22.864Z,101309.79
2018-03-19T20:42:50.647Z,101301.03
2018-03-19T20:45:18.390Z,101307.53
2018-03-19T20:47:46.164Z,101310.19
2018-03-19T20:50:13.861Z,101300.95
2018-03-19T20:52:41.571Z,101299.90
2018-03-19T20:55:09.351Z,101297.98
2018-03-19T20:57:37.074Z,101292.72
2018-03-19T21:00:04.774Z,101291.72
2018-03-19T21:02:32.502Z,101288.13
2018-03-19T21:05:00.192Z,101281.16
2018-03-19T21:07:27.986Z,101275.91
2018-03-19T21:09:55.735Z,101268.11
2018-03-19T21:12:23.507Z,101266.23
2018-03-19T21:14:51.216Z,101266.46
2018-03-19T21:17:18.931Z,101260.69
2018-03-19T21:19:46.661Z,101262.14
2018-03-19T21:22:14.342Z,101254.25
2018-03-19T21:24:42.123Z,101252.30
2018-03-19T21:27:09.817Z,101246.60
2018-03-19T21:29:37.524Z,101245.99
2018-03-19T21:32:05.234Z,101242.53
2018-03-19T21:34:32.982Z,101244.95
2018-03-19T21:37:00.681Z,101239.69
2018-03-19T21:39:28.397Z,101232.73
2018-03-19T21:41:56.276Z,101227.16
2018-03-19T21:44:24.039Z,101228.30
2018-03-19T21:46:51.725Z,101218.02
2018-03-19T21:49:19.476Z,101215.34
2018-03-19T21:51:47.337Z,101211.36
2018-03-19T21:54:15.110Z,101212.06
2018-03-19T21:56:42.867Z,101205.14
2018-03-19T21:59:10.579Z,101212.29
2018-03-19T22:01:38.265Z,101201.16
2018-03-19T22:04:05.963Z,101195.16
2018-03-19T22:06:33.644Z,101192.17
2018-03-19T22:09:01.348Z,101190.83
2018-03-19T22:11:29.036Z,101183.95
2018-03-19T22:13:56.739Z,101180.97
2018-03-19T22:16:24.479Z,101179.22
2018-03-19T22:18:52.190Z,101181.28
2018-03-19T22:21:19.911Z,101179.97
2018-03-19T22:23:47.610Z,101179.97
2018-03-19T22:26:15.325Z,101181.98
2018-03-19T22:28:43.021Z,101181.63
2018-03-19T22:31:10.728Z,101175.59
2018-03-19T22:33:38.413Z,101174.27
2018-03-19T22:36:06.201Z,101169.11
2018-03-19T22:38:33.883Z,101167.80
2018-03-19T22:41:01.588Z,101167.80
2018-03-19T22:43:29.284Z,101161.00
2018-03-19T22:45:57.049Z,101158.59
2018-03-19T22:48:24.727Z,101149.69
2018-03-19T22:50:52.437Z,101145.53
2018-03-19T22:53:20.125Z,101141.28
2018-03-19T22:55:47.912Z,101139.61
2018-03-19T22:58:15.667Z,101135.88
2018-03-19T23:00:43.391Z,101135.05
2018-03-19T23:03:11.071Z,101135.05
2018-03-19T23:05:38.771Z,101133.82
2018-03-19T23:08:06.532Z,101134.70
2018-03-19T23:10:34.240Z,101127.08
2018-03-19T23:13:01.926Z,101121.11
2018-03-19T23:15:29.727Z,101118.13
2018-03-19T23:17:57.421Z,101114.28
2018-03-19T23:20:25.132Z,101117.13
2018-03-19T23:22:52.829Z,101115.82
2018-03-19T23:25:20.532Z,101116.66
2018-03-19T23:27:48.217Z,101111.61
2018-03-19T23:30:15.931Z,101113.67
2018-03-19T23:32:43.641Z,101116.14
2018-03-19T23:35:11.322Z,101120.78
2018-03-19T23:37:39.027Z,101118.28
2018-03-19T23:40:06.707Z,101120.83
2018-03-19T23:42:34.417Z,101112.41
2018-03-19T23:45:02.105Z,101112.48
2018-03-19T23:47:29.810Z,101105.30
2018-03-19T23:49:57.495Z,101099.08
2018-03-19T23:52:25.205Z,101097.45
2018-03-19T23:54:52.949Z,101094.91
2018-03-19T23:57:20.711Z,101095.34
2018-03-19T23:59:48.476Z,101098.67
